Time;durP1;ratioP1;P1;durP2;ratioP2;P2;SDS_P1;SDS_P2;PMS_P1;PMS_P2;Temp;Humidity;BMP_temperature;BMP_pressure;BME280_temperature;BME280_humidity;BME280_pressure;Samples;Min_cycle;Max_cycle;Signal;HPM_P1;HPM_P2
2022/02/03 00:16:24;;;;;;;;;;;;;;;;;;;;;
2022/02/03 00:25:28;;;;;;;;;;;;;;;;;;;;;
2022/02/03 00:38:45;;;;;;;1.17;0.80;;;7.10;99.90;;;;;;4982659;28;20057;-79
2022/02/03 03:45:44;;;;;;;;;;;;;;;;;;;;;
2022/02/03 06:08:37;;;;;;;2.85;1.80;;;3.50;99.90;;;;;;5071863;28;20040;-82
2022/02/03 06:14:53;;;;;;;5.53;2.63;;;3.40;99.90;;;;;;5074049;28;20031;-82
2022/02/03 06:17:16;;;;;;;3.92;2.30;;;3.40;99.90;;;;;;5075984;28;20059;-82
2022/02/03 06:28:12;;;;;;;2.00;1.70;;;3.50;99.90;;;;;;5081684;28;20367;-81
2022/02/03 06:31:40;;;;;;;3.75;1.95;;;3.50;99.90;;;;;;5080541;28;20363;-83
2022/02/03 06:34:25;;;;;;;3.83;1.80;;;3.60;99.90;;;;;;5072928;28;20036;-84
2022/02/03 06:37:32;;;;;;;4.28;1.80;;;3.70;99.90;;;;;;5063653;28;20044;-87
2022/02/03 06:40:10;;;;;;;3.72;1.92;;;3.70;99.90;;;;;;5021441;28;20036;-78
2022/02/03 06:42:43;;;;;;;4.45;1.70;;;3.80;99.90;;;;;;5053152;28;20490;-79
2022/02/03 06:45:31;;;;;;;4.00;1.63;;;3.80;99.90;;;;;;5077616;28;20390;-79
2022/02/03 06:48:19;;;;;;;4.45;2.00;;;3.90;99.90;;;;;;5078461;28;20078;-80
2022/02/03 06:50:54;;;;;;;2.65;1.92;;;4.00;99.90;;;;;;5060669;28;20508;-80
2022/02/03 06:56:53;;;;;;;6.93;1.63;;;4.20;99.90;;;;;;5018295;28;20053;-84
2022/02/03 06:59:29;;;;;;;3.25;1.88;;;4.20;99.90;;;;;;5014433;28;20119;-84
2022/02/03 07:02:12;;;;;;;5.68;2.05;;;4.30;99.90;;;;;;5061688;28;20074;-84
2022/02/03 07:05:02;;;;;;;2.83;2.25;;;4.40;99.90;;;;;;5069380;28;20669;-83
2022/02/03 07:08:17;;;;;;;2.75;2.15;;;4.40;99.90;;;;;;5089628;28;20024;-84
2022/02/03 07:10:53;;;;;;;4.20;2.65;;;4.50;99.90;;;;;;5028876;28;20607;-86
2022/02/03 07:13:28;;;;;;;4.13;2.40;;;4.60;99.90;;;;;;5083147;28;20583;-85
2022/02/03 07:16:33;;;;;;;5.38;2.58;;;4.70;99.90;;;;;;5085230;28;20124;-84
2022/02/03 07:20:00;;;;;;;;;;;;;;;;;;;;;
2022/02/03 07:22:21;;;;;;;8.10;2.33;;;4.90;99.90;;;;;;5082886;28;20665;-86
2022/02/03 07:24:53;;;;;;;5.45;2.40;;;5.00;99.90;;;;;;5062815;28;20036;-86
2022/02/03 07:27:25;;;;;;;7.75;2.30;;;5.10;99.90;;;;;;5081854;28;20020;-85
2022/02/03 07:30:11;;;;;;;3.90;2.55;;;5.20;99.90;;;;;;5087354;28;20034;-86
2022/02/03 07:35:46;;;;;;;7.05;3.30;;;5.40;99.90;;;;;;5084483;28;20047;-86
2022/02/03 07:38:27;;;;;;;5.93;2.60;;;5.40;99.90;;;;;;5088579;28;20093;-86
2022/02/03 07:41:14;;;;;;;5.80;2.78;;;5.50;99.90;;;;;;5084075;28;20063;-85
2022/02/03 07:43:40;;;;;;;8.75;2.40;;;5.60;99.90;;;;;;5074085;28;20029;-85
2022/02/03 07:46:55;;;;;;;3.90;2.75;;;5.70;99.90;;;;;;5072277;28;20035;-86
2022/02/03 07:49:21;;;;;;;6.07;2.70;;;5.80;99.90;;;;;;5087032;28;20021;-86
2022/02/03 07:51:50;;;;;;;10.82;2.90;;;5.90;99.90;;;;;;5084454;28;20085;-84
2022/02/03 07:54:15;;;;;;;3.92;2.40;;;6.00;99.90;;;;;;5080707;28;20492;-86
2022/02/03 07:56:47;;;;;;;5.05;2.30;;;6.00;99.90;;;;;;5073913;28;20036;-87
2022/02/03 07:59:40;;;;;;;;;;;6.10;99.90;;;;;;5081837;28;20032;-86
2022/02/03 08:02:18;;;;;;;7.07;2.67;;;6.20;99.90;;;;;;5080634;28;19907;-86
2022/02/03 08:04:46;;;;;;;5.43;2.20;;;6.30;99.90;;;;;;5076906;28;20040;-87
2022/02/03 08:07:24;;;;;;;4.82;1.92;;;6.40;99.90;;;;;;5062443;28;20025;-87
2022/02/03 08:10:17;;;;;;;5.13;2.13;;;6.60;99.90;;;;;;5052736;28;20061;-86
2022/02/03 08:12:42;;;;;;;5.30;1.67;;;6.80;99.90;;;;;;5052118;28;20029;-86
2022/02/03 08:15:10;;;;;;;5.72;1.85;;;7.00;99.90;;;;;;5061870;28;20112;-86
2022/02/03 08:17:39;;;;;;;4.82;2.17;;;7.10;99.90;;;;;;5047525;28;20067;-87
2022/02/03 08:20:17;;;;;;;3.55;1.50;;;7.20;99.90;;;;;;5042585;28;20030;-87
2022/02/03 08:23:14;;;;;;;5.50;2.00;;;7.30;99.90;;;;;;5057537;28;20017;-88
2022/02/03 08:25:32;;;;;;;5.07;2.10;;;7.40;99.90;;;;;;5058771;28;20511;-85
2022/02/03 08:34:13;;;;;;;7.45;2.10;;;7.80;99.90;;;;;;5036829;28;20391;-85
2022/02/03 08:36:45;;;;;;;6.60;2.60;;;7.90;99.90;;;;;;5063785;28;20036;-87
2022/02/03 08:39:12;;;;;;;5.07;1.80;;;8.10;99.90;;;;;;5057440;28;20023;-87
2022/02/03 08:41:37;;;;;;;5.47;2.22;;;8.10;99.90;;;;;;5038577;28;20029;-86
2022/02/03 08:44:04;;;;;;;6.32;1.58;;;8.20;99.90;;;;;;5068602;28;20069;-86
2022/02/03 08:46:51;;;;;;;2.33;1.83;;;8.40;99.90;;;;;;5044877;28;20044;-90
2022/02/03 08:49:22;;;;;;;5.80;1.73;;;8.40;99.90;;;;;;5065978;28;20099;-88
2022/02/03 08:51:49;;;;;;;3.60;1.70;;;8.50;99.90;;;;;;5048657;28;20033;-88
2022/02/03 08:54:22;;;;;;;2.67;1.60;;;8.60;99.90;;;;;;5058820;28;20019;-89
2022/02/03 08:57:03;;;;;;;2.33;1.90;;;8.70;99.90;;;;;;5064373;28;20119;-87
2022/02/03 08:59:57;;;;;;;5.75;1.92;;;8.80;99.90;;;;;;5055012;28;20395;-88
2022/02/03 09:40:54;;;;;;;4.97;1.77;;;10.60;99.90;;;;;;5089212;28;20123;-92
2022/02/03 09:52:36;;;;;;;2.13;1.33;;;11.10;95.30;;;;;;5038249;28;20060;-85
2022/02/03 10:00:06;;;;;;;161.45;117.43;;;11.40;91.60;;;;;;5077282;28;20039;-85
2022/02/03 10:02:33;;;;;;;45.28;38.38;;;11.50;95.00;;;;;;5067648;28;20054;-86
2022/02/03 10:05:31;;;;;;;8.68;4.45;;;11.40;97.70;;;;;;5090164;28;20466;-85
2022/02/03 10:07:51;;;;;;;11.30;4.55;;;11.30;99.90;;;;;;5088492;28;20044;-86
2022/02/03 10:10:40;;;;;;;8.02;4.20;;;11.20;99.90;;;;;;5083802;28;20031;-85
2022/02/03 10:13:22;;;;;;;13.18;5.78;;;10.90;99.90;;;;;;5083619;28;20027;-85
2022/02/03 10:16:04;;;;;;;10.63;5.00;;;10.90;99.90;;;;;;5068213;28;20036;-85
2022/02/03 10:18:31;;;;;;;12.75;5.60;;;10.90;99.90;;;;;;5082893;28;20535;-87
2022/02/03 10:21:00;;;;;;;9.93;5.20;;;11.00;99.90;;;;;;5077768;28;20428;-86
2022/02/03 10:23:27;;;;;;;14.82;4.32;;;11.10;99.90;;;;;;5067639;28;20032;-86
2022/02/03 10:26:04;;;;;;;10.93;3.80;;;11.30;99.90;;;;;;5071764;28;20039;-84
2022/02/03 10:28:30;;;;;;;5.70;3.50;;;11.40;99.90;;;;;;5090919;28;20478;-83
2022/02/03 10:31:04;;;;;;;8.65;3.10;;;11.50;99.90;;;;;;5089179;28;20040;-84
2022/02/03 10:33:38;;;;;;;10.35;2.38;;;11.60;99.90;;;;;;5079933;28;20078;-85
2022/02/03 10:36:15;;;;;;;6.03;2.80;;;11.70;99.90;;;;;;5089796;28;20055;-85
2022/02/03 10:42:04;;;;;;;6.82;2.17;;;11.90;99.90;;;;;;5087699;28;20537;-85
2022/02/03 10:45:15;;;;;;;4.07;2.35;;;12.00;99.90;;;;;;5066479;28;20029;-87
2022/02/03 10:58:55;;;;;;;3.53;1.40;;;12.40;90.90;;;;;;5081310;28;20039;-85
2022/02/03 11:01:49;;;;;;;2.75;1.80;;;12.40;88.30;;;;;;5062911;28;21851;-85
2022/02/03 11:07:25;;;;;;;11.27;3.95;;;12.60;87.00;;;;;;5065721;28;20090;-85
2022/02/03 11:10:02;;;;;;;21.40;8.35;;;12.60;99.90;;;;;;5047690;28;20044;-84
2022/02/03 11:12:35;;;;;;;12.45;6.95;;;12.60;97.00;;;;;;5064063;28;20479;-86
2022/02/03 11:15:05;;;;;;;12.38;5.30;;;12.60;90.80;;;;;;5061761;28;20119;-85
2022/02/03 11:17:36;;;;;;;9.35;5.90;;;12.60;92.40;;;;;;5047309;28;20054;-84
2022/02/03 11:20:17;;;;;;;7.65;3.72;;;12.60;91.80;;;;;;5067222;28;20071;-86
2022/02/03 11:26:01;;;;;;;10.02;3.55;;;12.50;92.50;;;;;;5075812;28;20126;-85
2022/02/03 11:29:34;;;;;;;4.63;1.63;;;12.50;92.80;;;;;;5052332;28;20040;-85
2022/02/03 11:48:27;;;;;;;3.03;1.95;;;13.10;85.00;;;;;;5065045;28;20430;-85
2022/02/03 11:52:15;;;;;;;2.38;1.45;;;13.10;86.30;;;;;;5053294;28;20646;-85
2022/02/03 12:16:49;;;;;;;6.35;2.42;;;12.80;97.90;;;;;;5028892;28;20144;-88
2022/02/03 12:22:58;;;;;;;5.55;2.85;;;11.70;99.90;;;;;;5091922;28;20036;-87
2022/02/03 12:25:46;;;;;;;7.25;3.33;;;11.50;99.90;;;;;;5075627;28;20591;-87
2022/02/03 12:28:36;;;;;;;9.27;3.38;;;11.30;99.90;;;;;;5077600;28;20032;-85
2022/02/03 12:44:41;;;;;;;3.55;2.25;;;15.90;99.90;;;;;;5086640;28;20027;-89
2022/02/03 12:47:08;;;;;;;3.80;1.95;;;17.40;95.90;;;;;;5073386;28;20050;-88
2022/02/03 12:49:41;;;;;;;3.78;1.88;;;18.20;85.20;;;;;;5091851;28;20039;-89
2022/02/03 12:52:30;;;;;;;4.35;1.90;;;18.70;82.00;;;;;;5072681;28;20378;-88
2022/02/03 12:54:56;;;;;;;4.07;1.55;;;19.70;66.10;;;;;;5082988;28;20085;-87
2022/02/03 12:57:41;;;;;;;2.50;1.30;;;19.60;62.30;;;;;;5071390;28;20033;-88
2022/02/03 13:00:20;;;;;;;4.35;1.75;;;19.80;61.10;;;;;;5081340;28;20028;-90
2022/02/03 13:02:57;;;;;;;5.75;2.00;;;19.70;59.20;;;;;;5075960;28;20033;-88
2022/02/03 13:05:29;;;;;;;2.28;1.35;;;19.20;59.90;;;;;;5066800;28;20057;-89
2022/02/03 13:07:58;;;;;;;2.83;1.55;;;18.90;59.20;;;;;;5073140;28;20037;-87
2022/02/03 13:10:32;;;;;;;3.10;1.73;;;18.50;60.00;;;;;;5057589;28;20442;-88
2022/02/03 13:13:25;;;;;;;2.25;1.83;;;18.40;60.40;;;;;;5075387;28;20056;-88
2022/02/03 13:15:57;;;;;;;2.15;1.75;;;18.60;59.10;;;;;;5062260;28;20028;-89
2022/02/03 13:18:31;;;;;;;4.22;1.85;;;18.60;59.40;;;;;;5064353;28;20032;-88
2022/02/03 13:21:20;;;;;;;2.50;1.92;;;18.50;58.30;;;;;;5065909;28;20021;-89
2022/02/03 13:23:51;;;;;;;3.78;1.60;;;18.20;58.40;;;;;;5074873;28;20032;-88
2022/02/03 13:26:35;;;;;;;3.20;1.52;;;18.30;57.40;;;;;;5074454;28;20360;-88
2022/02/03 13:29:06;;;;;;;1.85;1.33;;;18.30;57.80;;;;;;5080900;28;20029;-88
2022/02/03 13:31:47;;;;;;;9.85;2.13;;;19.40;56.90;;;;;;5078591;28;20021;-83
2022/02/03 13:34:37;;;;;;;3.00;1.63;;;20.90;54.50;;;;;;5083049;28;20024;-82
2022/02/03 13:40:10;;;;;;;3.85;1.85;;;21.80;51.20;;;;;;5067840;28;20025;-83
2022/02/03 13:42:43;;;;;;;3.08;2.15;;;22.00;50.70;;;;;;5071710;28;20028;-86
2022/02/03 13:45:14;;;;;;;2.17;1.67;;;21.50;52.00;;;;;;5074354;28;20028;-86
2022/02/03 13:47:46;;;;;;;2.38;1.88;;;21.80;50.20;;;;;;5067221;28;20017;-83
2022/02/03 13:50:23;;;;;;;2.47;1.70;;;21.90;50.40;;;;;;5072965;28;20028;-84
2022/02/03 13:53:12;;;;;;;5.13;2.50;;;21.70;50.20;;;;;;5052977;28;20025;-88
2022/02/03 14:29:44;;;;;;;3.90;2.70;;;13.60;65.30;;;;;;5084448;28;20039;-87
2022/02/03 14:32:15;;;;;;;5.68;2.95;;;13.20;66.80;;;;;;5070007;28;20028;-84
2022/02/03 14:34:47;;;;;;;5.60;4.00;;;13.10;68.00;;;;;;5066966;28;20040;-83
2022/02/03 14:42:30;;;;;;;4.80;3.25;;;13.20;71.00;;;;;;5077422;28;20043;-84
2022/02/03 14:45:02;;;;;;;4.00;2.85;;;13.50;72.00;;;;;;5085013;28;20466;-83
2022/02/03 14:47:29;;;;;;;3.85;2.47;;;13.90;72.00;;;;;;5067101;28;20016;-84
2022/02/03 14:50:00;;;;;;;7.20;2.30;;;14.00;74.00;;;;;;5086018;28;20043;-87
2022/02/03 14:52:32;;;;;;;5.90;1.90;;;13.80;76.40;;;;;;5070376;28;20052;-84
2022/02/03 14:58:06;;;;;;;6.90;2.00;;;13.00;80.90;;;;;;5072629;28;20047;-85
2022/02/03 15:00:33;;;;;;;3.55;1.92;;;12.70;82.70;;;;;;5061663;28;20028;-89
2022/02/03 15:03:46;;;;;;;5.97;2.20;;;12.40;84.70;;;;;;5076480;28;20425;-82
2022/02/03 15:06:18;;;;;;;8.23;2.45;;;12.20;84.10;;;;;;5059262;28;20051;-84
2022/02/03 15:08:58;;;;;;;3.22;2.28;;;12.10;85.20;;;;;;5065422;28;20116;-84
2022/02/03 15:11:53;;;;;;;7.97;2.88;;;12.00;86.00;;;;;;5082187;28;20032;-86
2022/02/03 15:14:16;;;;;;;1.53;1.23;;;11.90;87.00;;;;;;5082640;28;20063;-85
2022/02/03 15:17:03;;;;;;;6.15;2.03;;;11.90;89.60;;;;;;5087424;28;20491;-91
2022/02/03 15:19:32;;;;;;;6.20;2.53;;;11.80;89.80;;;;;;5093690;28;20016;-87
2022/02/03 15:21:58;;;;;;;4.22;2.67;;;11.70;90.40;;;;;;5082795;28;20035;-88
2022/02/03 15:24:27;;;;;;;10.88;3.25;;;11.60;90.30;;;;;;5070690;28;20016;-89
2022/02/03 15:26:55;;;;;;;4.35;2.95;;;11.60;90.60;;;;;;5039583;28;20029;-85
2022/02/03 15:29:30;;;;;;;6.80;4.22;;;11.50;90.20;;;;;;5095686;28;20735;-92
2022/02/03 15:31:56;;;;;;;10.40;2.00;;;11.40;90.50;;;;;;5067140;28;20051;-87
2022/02/03 15:34:40;;;;;;;6.03;1.70;;;11.30;88.80;;;;;;5096857;28;20418;-89
2022/02/03 15:37:19;;;;;;;6.43;1.67;;;11.20;90.00;;;;;;5087527;28;20039;-92
2022/02/03 15:39:48;;;;;;;4.28;1.83;;;11.10;90.20;;;;;;5082379;28;20034;-85
2022/02/03 15:42:18;;;;;;;4.43;1.80;;;11.10;90.70;;;;;;5091660;28;20021;-87
2022/02/03 15:44:48;;;;;;;2.40;1.65;;;11.00;91.30;;;;;;5069681;28;20055;-86
2022/02/03 15:47:24;;;;;;;3.55;1.90;;;10.90;92.20;;;;;;5072004;28;20413;-79
2022/02/03 16:19:44;;;;;;;38.95;15.18;;;10.10;99.90;;;;;;5084184;28;20127;-82
2022/02/03 16:24:58;;;;;;;41.72;24.77;;;10.00;99.90;;;;;;5084138;28;20380;-78
2022/02/03 16:55:05;;;;;;;29.13;11.48;;;9.40;99.90;;;;;;5086246;28;20016;-81
2022/02/03 16:57:31;;;;;;;14.43;6.93;;;9.40;99.90;;;;;;5090529;28;20035;-81
2022/02/03 17:00:01;;;;;;;16.60;6.38;;;9.30;99.90;;;;;;5065146;28;20025;-80
2022/02/03 17:02:26;;;;;;;11.77;6.80;;;9.30;99.90;;;;;;5071177;28;20052;-81
2022/02/03 17:04:53;;;;;;;9.73;4.88;;;9.20;99.90;;;;;;5092140;28;20469;-81
2022/02/03 17:07:19;;;;;;;7.75;5.05;;;9.10;99.90;;;;;;5076711;28;20061;-81
2022/02/03 17:09:45;;;;;;;10.00;5.13;;;9.00;99.90;;;;;;5081305;28;20067;-82
2022/02/03 17:12:11;;;;;;;13.07;6.90;;;8.90;99.90;;;;;;5085058;28;20120;-81
2022/02/03 17:14:40;;;;;;;12.88;7.13;;;8.90;99.90;;;;;;5087529;28;20016;-81
2022/02/03 17:17:09;;;;;;;20.67;8.10;;;8.80;99.90;;;;;;5087664;28;20060;-82
2022/02/03 17:19:43;;;;;;;25.70;8.18;;;8.80;99.90;;;;;;5076781;28;20497;-82
2022/02/03 17:22:14;;;;;;;22.17;8.00;;;8.70;99.90;;;;;;5086894;28;20029;-81
2022/02/03 17:24:47;;;;;;;16.75;6.68;;;8.60;99.90;;;;;;5065305;28;20138;-81
2022/02/03 17:30:18;;;;;;;12.37;7.87;;;8.50;99.90;;;;;;5078990;28;20033;-81
2022/02/03 18:08:34;;;;;;;34.60;18.02;;;7.90;99.90;;;;;;5084441;28;20112;-81
2022/02/03 18:36:26;;;;;;;15.57;6.82;;;8.00;99.90;;;;;;5090435;28;20074;-81
2022/02/03 18:50:04;;;;;;;30.42;14.63;;;7.80;99.90;;;;;;5076168;28;20078;-82
2022/02/03 18:52:51;;;;;;;28.60;17.25;;;7.70;99.90;;;;;;5090592;28;20042;-82
2022/02/03 18:55:25;;;;;;;24.27;12.27;;;7.70;99.90;;;;;;5081723;28;20024;-82
2022/02/03 18:58:04;;;;;;;19.00;10.85;;;7.70;99.90;;;;;;5074795;28;20127;-81
2022/02/03 19:00:52;;;;;;;19.85;10.20;;;7.60;99.90;;;;;;5079284;28;20436;-82
2022/02/03 19:09:26;;;;;;;15.57;8.85;;;7.60;99.90;;;;;;5091934;28;20015;-82
2022/02/03 19:14:38;;;;;;;24.80;11.57;;;7.50;99.90;;;;;;5075576;28;20043;-83
2022/02/03 20:06:03;;;;;;;22.63;11.77;;;7.40;99.90;;;;;;5081507;28;20132;-84
2022/02/03 20:08:39;;;;;;;45.00;24.02;;;7.50;99.90;;;;;;5067328;28;20032;-82
2022/02/03 20:11:05;;;;;;;14.88;9.88;;;7.40;99.90;;;;;;5059955;28;20051;-82
2022/02/03 20:13:31;;;;;;;19.35;9.68;;;7.40;99.90;;;;;;5081470;28;20028;-84
2022/02/03 20:15:57;;;;;;;23.73;13.18;;;7.30;99.90;;;;;;5074838;28;20040;-81
2022/02/03 20:18:23;;;;;;;17.40;10.73;;;7.30;99.90;;;;;;5074365;28;20497;-81
2022/02/03 20:20:49;;;;;;;20.23;11.25;;;7.30;99.90;;;;;;5068931;28;20054;-81
2022/02/03 20:23:22;;;;;;;18.48;11.38;;;7.20;99.90;;;;;;5064589;28;20029;-83
2022/02/03 20:25:54;;;;;;;;;;;7.30;99.90;;;;;;5070811;28;20021;-83
2022/02/03 20:28:20;;;;;;;;;;;7.30;99.90;;;;;;5068960;28;19908;-82
2022/02/03 20:30:49;;;;;;;17.65;10.43;;;7.20;99.90;;;;;;5065157;28;19913;-83
2022/02/03 20:33:15;;;;;;;35.35;17.70;;;7.30;99.90;;;;;;5059734;28;20025;-83
2022/02/03 20:35:54;;;;;;;22.48;11.05;;;7.30;99.90;;;;;;5071000;28;20043;-83
2022/02/03 20:38:22;;;;;;;18.73;10.52;;;7.30;99.90;;;;;;5070382;28;20100;-83
2022/02/03 20:40:50;;;;;;;30.63;14.13;;;7.30;99.90;;;;;;5068249;28;20537;-84
2022/02/03 20:43:16;;;;;;;28.45;14.68;;;7.20;99.90;;;;;;5062114;28;20427;-78
2022/02/03 20:45:47;;;;;;;32.90;17.50;;;7.20;99.90;;;;;;5069810;28;20032;-81
2022/02/03 20:48:13;;;;;;;63.35;26.50;;;7.20;99.90;;;;;;5056995;28;20028;-82
2022/02/03 20:50:40;;;;;;;33.88;17.65;;;7.20;99.90;;;;;;5067084;28;20048;-85
2022/02/03 20:53:23;;;;;;;45.17;24.00;;;7.20;99.90;;;;;;5061763;28;20021;-84
2022/02/03 20:55:52;;;;;;;22.98;12.25;;;7.10;99.90;;;;;;5048439;28;20055;-80
2022/02/03 20:58:20;;;;;;;17.35;9.48;;;7.20;99.90;;;;;;5067686;28;20037;-84
2022/02/03 21:00:58;;;;;;;19.05;9.70;;;7.10;99.90;;;;;;5061364;28;20073;-82
2022/02/03 21:03:45;;;;;;;16.35;9.60;;;7.10;99.90;;;;;;5075566;28;20392;-85
2022/02/03 21:06:15;;;;;;;15.40;9.32;;;7.10;99.90;;;;;;5081410;28;20047;-83
2022/02/03 21:08:46;;;;;;;63.10;36.35;;;7.10;99.90;;;;;;5081505;28;20074;-83
2022/02/03 21:11:34;;;;;;;33.55;20.35;;;7.10;99.90;;;;;;5086919;28;20032;-82
2022/02/03 21:14:06;;;;;;;25.45;12.25;;;7.10;99.90;;;;;;5096645;28;20025;-83
2022/02/03 21:16:32;;;;;;;15.13;8.77;;;7.10;99.90;;;;;;5092956;28;20484;-85
2022/02/03 21:19:01;;;;;;;10.75;7.38;;;7.10;99.90;;;;;;5087451;28;20536;-83
2022/02/03 21:21:27;;;;;;;17.13;9.15;;;7.20;99.90;;;;;;5072417;28;20153;-83
2022/02/03 21:23:53;;;;;;;21.15;10.95;;;7.20;99.90;;;;;;5086634;28;20039;-83
2022/02/03 21:26:30;;;;;;;33.33;17.98;;;7.20;99.90;;;;;;5072154;28;20028;-84
2022/02/03 21:28:56;;;;;;;25.60;13.50;;;7.10;99.90;;;;;;5087478;28;20397;-86
2022/02/03 21:31:25;;;;;;;20.52;11.63;;;7.10;99.90;;;;;;5085350;28;20431;-84
2022/02/03 21:33:55;;;;;;;13.98;8.10;;;7.10;99.90;;;;;;5069305;28;20030;-86
2022/02/03 21:36:23;;;;;;;19.35;9.05;;;7.10;99.90;;;;;;5066920;28;20097;-82
2022/02/03 21:38:50;;;;;;;22.00;10.82;;;7.10;99.90;;;;;;5086218;28;20028;-84
2022/02/03 21:41:20;;;;;;;15.73;8.43;;;7.00;99.90;;;;;;5088042;28;20028;-82
2022/02/03 21:43:48;;;;;;;15.35;9.63;;;7.10;99.90;;;;;;5089087;28;20094;-82
2022/02/03 21:46:16;;;;;;;17.10;9.10;;;7.00;99.90;;;;;;5084495;28;20512;-84
2022/02/03 21:49:23;;;;;;;15.18;9.07;;;7.00;99.90;;;;;;5073059;28;20036;-84
2022/02/03 21:51:54;;;;;;;19.33;9.15;;;7.00;99.90;;;;;;5080672;28;20103;-83
2022/02/03 21:54:24;;;;;;;25.33;9.30;;;6.90;99.90;;;;;;5073403;28;20102;-86
2022/02/03 21:56:50;;;;;;;38.03;18.98;;;6.90;99.90;;;;;;5067263;28;20037;-86
2022/02/03 21:59:16;;;;;;;23.75;11.88;;;6.90;99.90;;;;;;5070741;28;20028;-80
2022/02/03 22:05:40;;;;;;;18.40;10.32;;;6.70;99.90;;;;;;5083664;28;20157;-84
2022/02/03 22:08:12;;;;;;;24.75;14.77;;;6.70;99.90;;;;;;5074938;28;20487;-85
2022/02/03 22:10:44;;;;;;;25.27;17.25;;;6.70;99.90;;;;;;5070009;28;20029;-83
2022/02/03 22:14:01;;;;;;;11.52;7.30;;;6.60;99.90;;;;;;5071138;28;20036;-84
2022/02/03 22:16:37;;;;;;;14.02;7.28;;;6.60;99.90;;;;;;5055997;28;20099;-81
2022/02/03 22:19:12;;;;;;;12.63;6.63;;;6.60;99.90;;;;;;5075446;28;20020;-81
2022/02/03 22:25:31;;;;;;;9.40;5.90;;;6.60;99.90;;;;;;5075170;28;20649;-83
2022/02/03 22:38:55;;;;;;;8.65;6.00;;;6.50;99.90;;;;;;5077126;28;20107;-83
2022/02/03 22:44:11;;;;;;;11.43;5.50;;;6.40;99.90;;;;;;5088185;28;20425;-82
2022/02/03 22:46:55;;;;;;;14.50;5.55;;;6.30;99.90;;;;;;5081419;28;20029;-83
2022/02/03 22:49:21;;;;;;;13.35;5.63;;;6.30;99.90;;;;;;5061338;28;20031;-83
2022/02/03 22:51:49;;;;;;;12.32;5.82;;;6.30;99.90;;;;;;5083590;28;20016;-83
2022/02/03 22:54:21;;;;;;;10.98;6.30;;;6.30;99.90;;;;;;5074546;28;20024;-82
2022/02/03 22:56:47;;;;;;;13.10;6.32;;;6.30;99.90;;;;;;5083834;28;20086;-83
2022/02/03 23:01:51;;;;;;;7.28;5.15;;;6.30;99.90;;;;;;5076842;28;20032;-85
2022/02/03 23:04:31;;;;;;;21.40;6.45;;;6.40;99.90;;;;;;5073492;28;20537;-85
2022/02/03 23:07:06;;;;;;;10.77;5.10;;;6.40;99.90;;;;;;5079642;28;20052;-82
2022/02/03 23:09:47;;;;;;;13.00;5.82;;;6.40;99.90;;;;;;5084259;28;20020;-82
2022/02/03 23:12:17;;;;;;;11.18;5.15;;;6.40;99.90;;;;;;5071617;28;20467;-82
2022/02/03 23:20:15;;;;;;;12.27;5.80;;;6.40;99.90;;;;;;5083291;28;20210;-83
2022/02/03 23:23:23;;;;;;;11.23;5.85;;;6.40;99.90;;;;;;5083792;28;20028;-82
2022/02/03 23:25:36;;;;;;;10.75;5.07;;;6.50;99.90;;;;;;5074294;28;20028;-82
2022/02/03 23:29:26;;;;;;;9.98;4.90;;;6.40;99.90;;;;;;5086654;28;20032;-83
2022/02/03 23:31:43;;;;;;;9.07;5.25;;;6.50;99.90;;;;;;5070949;28;20055;-83
2022/02/03 23:34:09;;;;;;;8.40;4.97;;;6.50;99.90;;;;;;5057695;28;20371;-82
2022/02/03 23:36:44;;;;;;;13.98;5.07;;;6.50;99.90;;;;;;5086315;28;20028;-82
2022/02/03 23:39:19;;;;;;;10.32;5.38;;;6.50;99.90;;;;;;5069364;28;20065;-82
